Cowden, Illinois
Current Conditions -  °F | °C
As of 5:55 PM on Friday 31 Oct 2014 (Local Time) from K1H2 Reporting Station
Broken Clouds Broken Clouds  
Wind Chill: -1°   Ceiling: 5500
Heat Index:   Visibility: 10mi
Dew Point: -7°   Wind: 21mph
Humidity: 45%   Direction: 340°NNW
Pressure: 30.26"   Gusts: 30mph
Location:  39.25°N, 88.86°W
Report Text: K1H2 312255Z AUTO 34018G26KT 10SM SCT048 BKN055 05/M06 A3026 RMK AO2 T00471065
Loading
Personal Weather Stations






























Interactive Weather Map
Tropical Storm Tracking
New forecast layout! Learn more

10-Day Weather Forecast

Advertisements
Track Severe Weather on mobile